sensor_id;sensor_type;location;lat;lon;timestamp;temperature;humidity
46458;DHT22;32155;54.076;12.092;2022-10-17T00:01:25;10.80;99.90
46458;DHT22;32155;54.076;12.092;2022-10-17T00:03:51;10.80;99.90
46458;DHT22;32155;54.076;12.092;2022-10-17T00:06:16;10.70;99.90
46458;DHT22;32155;54.076;12.092;2022-10-17T00:08:42;10.60;99.90
46458;DHT22;32155;54.076;12.092;2022-10-17T00:11:17;10.50;99.90
46458;DHT22;32155;54.076;12.092;2022-10-17T00:13:44;10.60;99.90
46458;DHT22;32155;54.076;12.092;2022-10-17T00:16:09;10.50;99.90
46458;DHT22;32155;54.076;12.092;2022-10-17T00:18:35;10.50;99.90
46458;DHT22;32155;54.076;12.092;2022-10-17T00:21:00;10.60;99.90
46458;DHT22;32155;54.076;12.092;2022-10-17T00:23:26;10.50;99.90
46458;DHT22;32155;54.076;12.092;2022-10-17T00:26:03;10.40;99.90
46458;DHT22;32155;54.076;12.092;2022-10-17T00:28:29;10.30;99.90
46458;DHT22;32155;54.076;12.092;2022-10-17T00:30:56;10.40;99.90
46458;DHT22;32155;54.076;12.092;2022-10-17T00:33:22;10.40;99.90
46458;DHT22;32155;54.076;12.092;2022-10-17T00:35:47;10.40;99.90
46458;DHT22;32155;54.076;12.092;2022-10-17T00:38:13;10.40;99.90
46458;DHT22;32155;54.076;12.092;2022-10-17T00:40:38;10.50;99.90
46458;DHT22;32155;54.076;12.092;2022-10-17T00:43:05;10.50;99.90
46458;DHT22;32155;54.076;12.092;2022-10-17T00:45:34;10.60;99.90
46458;DHT22;32155;54.076;12.092;2022-10-17T00:48:02;10.70;99.90
46458;DHT22;32155;54.076;12.092;2022-10-17T00:50:29;10.90;99.90
46458;DHT22;32155;54.076;12.092;2022-10-17T00:52:55;11.00;99.90
46458;DHT22;32155;54.076;12.092;2022-10-17T00:55:24;10.90;99.90
46458;DHT22;32155;54.076;12.092;2022-10-17T00:57:53;10.90;99.90
46458;DHT22;32155;54.076;12.092;2022-10-17T01:00:19;10.90;99.90
46458;DHT22;32155;54.076;12.092;2022-10-17T01:02:45;10.90;99.90
46458;DHT22;32155;54.076;12.092;2022-10-17T01:05:11;11.10;99.90
46458;DHT22;32155;54.076;12.092;2022-10-17T01:07:37;11.10;99.90
46458;DHT22;32155;54.076;12.092;2022-10-17T01:10:04;11.20;99.90
46458;DHT22;32155;54.076;12.092;2022-10-17T01:25:56;11.50;99.90
46458;DHT22;32155;54.076;12.092;2022-10-17T01:31:02;11.40;99.90
46458;DHT22;32155;54.076;12.092;2022-10-17T01:38:49;11.40;99.90
46458;DHT22;32155;54.076;12.092;2022-10-17T01:44:02;11.50;99.90
46458;DHT22;32155;54.076;12.092;2022-10-17T01:48:59;11.60;99.90
46458;DHT22;32155;54.076;12.092;2022-10-17T01:51:29;11.60;99.90
46458;DHT22;32155;54.076;12.092;2022-10-17T01:54:08;11.70;99.90
46458;DHT22;32155;54.076;12.092;2022-10-17T01:56:35;11.80;99.90
46458;DHT22;32155;54.076;12.092;2022-10-17T01:59:08;11.80;99.90
46458;DHT22;32155;54.076;12.092;2022-10-17T02:01:35;11.70;99.90
46458;DHT22;32155;54.076;12.092;2022-10-17T02:04:01;11.70;99.90
46458;DHT22;32155;54.076;12.092;2022-10-17T02:06:27;11.90;99.90
46458;DHT22;32155;54.076;12.092;2022-10-17T02:08:53;11.90;99.90
46458;DHT22;32155;54.076;12.092;2022-10-17T02:11:25;11.90;99.90
46458;DHT22;32155;54.076;12.092;2022-10-17T02:13:56;11.80;99.90
46458;DHT22;32155;54.076;12.092;2022-10-17T02:16:34;11.90;99.90
46458;DHT22;32155;54.076;12.092;2022-10-17T02:24:17;12.10;99.90
46458;DHT22;32155;54.076;12.092;2022-10-17T02:27:05;12.00;99.90
46458;DHT22;32155;54.076;12.092;2022-10-17T02:29:35;12.00;99.90
46458;DHT22;32155;54.076;12.092;2022-10-17T02:32:09;11.90;99.90
46458;DHT22;32155;54.076;12.092;2022-10-17T02:34:38;11.80;99.90
46458;DHT22;32155;54.076;12.092;2022-10-17T02:37:05;11.80;99.90
46458;DHT22;32155;54.076;12.092;2022-10-17T02:39:31;11.90;99.90
46458;DHT22;32155;54.076;12.092;2022-10-17T02:41:59;11.90;99.90
46458;DHT22;32155;54.076;12.092;2022-10-17T02:44:26;11.90;99.90
46458;DHT22;32155;54.076;12.092;2022-10-17T02:46:54;11.90;99.90
46458;DHT22;32155;54.076;12.092;2022-10-17T02:49:27;11.90;99.90
46458;DHT22;32155;54.076;12.092;2022-10-17T02:54:39;12.00;99.90
46458;DHT22;32155;54.076;12.092;2022-10-17T02:57:07;12.00;99.90
46458;DHT22;32155;54.076;12.092;2022-10-17T02:59:34;12.00;99.90
46458;DHT22;32155;54.076;12.092;2022-10-17T03:02:04;12.00;99.90
46458;DHT22;32155;54.076;12.092;2022-10-17T03:04:29;12.20;99.90
46458;DHT22;32155;54.076;12.092;2022-10-17T03:06:59;12.10;99.90
46458;DHT22;32155;54.076;12.092;2022-10-17T03:09:25;12.10;99.90
46458;DHT22;32155;54.076;12.092;2022-10-17T03:11:51;12.00;99.90
46458;DHT22;32155;54.076;12.092;2022-10-17T03:14:19;12.00;99.90
46458;DHT22;32155;54.076;12.092;2022-10-17T03:16:45;12.00;99.90
46458;DHT22;32155;54.076;12.092;2022-10-17T03:19:10;12.00;99.90
46458;DHT22;32155;54.076;12.092;2022-10-17T03:21:36;12.00;99.90
46458;DHT22;32155;54.076;12.092;2022-10-17T03:24:02;12.00;99.90
46458;DHT22;32155;54.076;12.092;2022-10-17T03:26:28;12.10;99.90
46458;DHT22;32155;54.076;12.092;2022-10-17T03:28:54;12.00;99.90
46458;DHT22;32155;54.076;12.092;2022-10-17T03:31:22;11.90;99.90
46458;DHT22;32155;54.076;12.092;2022-10-17T03:33:50;11.90;99.90
46458;DHT22;32155;54.076;12.092;2022-10-17T03:36:16;12.00;99.90
46458;DHT22;32155;54.076;12.092;2022-10-17T03:38:42;12.10;99.90
46458;DHT22;32155;54.076;12.092;2022-10-17T03:41:07;12.10;99.90
46458;DHT22;32155;54.076;12.092;2022-10-17T03:43:33;12.20;99.90
46458;DHT22;32155;54.076;12.092;2022-10-17T03:45:59;12.20;99.90
46458;DHT22;32155;54.076;12.092;2022-10-17T03:48:25;12.10;99.90
46458;DHT22;32155;54.076;12.092;2022-10-17T03:51:03;12.10;99.90
46458;DHT22;32155;54.076;12.092;2022-10-17T03:53:29;12.00;99.90
46458;DHT22;32155;54.076;12.092;2022-10-17T03:55:55;12.00;99.90
46458;DHT22;32155;54.076;12.092;2022-10-17T03:58:21;12.00;99.90
46458;DHT22;32155;54.076;12.092;2022-10-17T04:00:46;12.00;99.90
46458;DHT22;32155;54.076;12.092;2022-10-17T04:03:12;12.00;99.90
46458;DHT22;32155;54.076;12.092;2022-10-17T04:05:38;12.00;99.90
46458;DHT22;32155;54.076;12.092;2022-10-17T04:08:03;12.20;99.90
46458;DHT22;32155;54.076;12.092;2022-10-17T04:10:31;12.20;99.90
46458;DHT22;32155;54.076;12.092;2022-10-17T04:12:57;12.20;99.90
46458;DHT22;32155;54.076;12.092;2022-10-17T04:15:22;12.20;99.90
46458;DHT22;32155;54.076;12.092;2022-10-17T04:17:48;12.20;99.90
46458;DHT22;32155;54.076;12.092;2022-10-17T04:20:13;12.10;99.90
46458;DHT22;32155;54.076;12.092;2022-10-17T04:22:41;12.10;99.90
46458;DHT22;32155;54.076;12.092;2022-10-17T04:25:09;12.20;99.90
46458;DHT22;32155;54.076;12.092;2022-10-17T04:27:34;12.20;99.90
46458;DHT22;32155;54.076;12.092;2022-10-17T04:30:00;12.30;99.90
46458;DHT22;32155;54.076;12.092;2022-10-17T04:32:25;12.30;99.90
46458;DHT22;32155;54.076;12.092;2022-10-17T04:34:51;12.30;99.90
46458;DHT22;32155;54.076;12.092;2022-10-17T04:37:16;12.30;99.90
46458;DHT22;32155;54.076;12.092;2022-10-17T04:39:44;12.30;99.90
46458;DHT22;32155;54.076;12.092;2022-10-17T04:42:10;12.40;99.90
46458;DHT22;32155;54.076;12.092;2022-10-17T04:44:35;12.40;99.90
46458;DHT22;32155;54.076;12.092;2022-10-17T04:47:03;12.40;99.90
46458;DHT22;32155;54.076;12.092;2022-10-17T04:49:28;12.50;99.90
46458;DHT22;32155;54.076;12.092;2022-10-17T04:51:56;12.40;99.90
46458;DHT22;32155;54.076;12.092;2022-10-17T04:54:22;12.50;99.90
46458;DHT22;32155;54.076;12.092;2022-10-17T04:56:47;12.40;99.90
46458;DHT22;32155;54.076;12.092;2022-10-17T04:59:13;12.50;99.90
46458;DHT22;32155;54.076;12.092;2022-10-17T05:01:41;12.50;99.90
46458;DHT22;32155;54.076;12.092;2022-10-17T05:04:06;12.40;99.90
46458;DHT22;32155;54.076;12.092;2022-10-17T05:06:32;12.40;99.90
46458;DHT22;32155;54.076;12.092;2022-10-17T05:08:58;12.40;99.90
46458;DHT22;32155;54.076;12.092;2022-10-17T05:11:25;12.40;99.90
46458;DHT22;32155;54.076;12.092;2022-10-17T05:13:57;12.40;99.90
46458;DHT22;32155;54.076;12.092;2022-10-17T05:16:23;12.30;99.90
46458;DHT22;32155;54.076;12.092;2022-10-17T05:18:49;12.50;99.90
46458;DHT22;32155;54.076;12.092;2022-10-17T05:21:15;12.40;99.90
46458;DHT22;32155;54.076;12.092;2022-10-17T05:23:40;12.40;99.90
46458;DHT22;32155;54.076;12.092;2022-10-17T05:26:08;12.40;99.90
46458;DHT22;32155;54.076;12.092;2022-10-17T05:28:34;12.40;99.90
46458;DHT22;32155;54.076;12.092;2022-10-17T05:31:03;12.50;99.90
46458;DHT22;32155;54.076;12.092;2022-10-17T05:33:29;12.50;99.90
46458;DHT22;32155;54.076;12.092;2022-10-17T05:35:55;12.50;99.90
46458;DHT22;32155;54.076;12.092;2022-10-17T05:38:20;12.50;99.90
46458;DHT22;32155;54.076;12.092;2022-10-17T05:40:51;12.50;99.90
46458;DHT22;32155;54.076;12.092;2022-10-17T05:43:16;12.50;99.90
46458;DHT22;32155;54.076;12.092;2022-10-17T05:45:42;12.60;99.90
46458;DHT22;32155;54.076;12.092;2022-10-17T05:48:09;12.60;99.90
46458;DHT22;32155;54.076;12.092;2022-10-17T05:50:35;12.60;99.90
46458;DHT22;32155;54.076;12.092;2022-10-17T05:53:01;12.60;99.90
46458;DHT22;32155;54.076;12.092;2022-10-17T05:55:27;12.70;99.90
46458;DHT22;32155;54.076;12.092;2022-10-17T05:57:53;12.80;99.90
46458;DHT22;32155;54.076;12.092;2022-10-17T06:00:19;12.90;99.90
46458;DHT22;32155;54.076;12.092;2022-10-17T06:02:47;12.90;99.90
46458;DHT22;32155;54.076;12.092;2022-10-17T06:05:14;13.00;99.90
46458;DHT22;32155;54.076;12.092;2022-10-17T06:07:40;13.00;99.90
46458;DHT22;32155;54.076;12.092;2022-10-17T06:10:11;13.10;99.90
46458;DHT22;32155;54.076;12.092;2022-10-17T06:12:41;13.20;99.90
46458;DHT22;32155;54.076;12.092;2022-10-17T06:15:06;13.10;99.90
46458;DHT22;32155;54.076;12.092;2022-10-17T06:17:35;13.10;99.90
46458;DHT22;32155;54.076;12.092;2022-10-17T06:20:03;13.10;99.90
46458;DHT22;32155;54.076;12.092;2022-10-17T06:22:28;13.10;99.90
46458;DHT22;32155;54.076;12.092;2022-10-17T06:24:54;13.10;99.90
46458;DHT22;32155;54.076;12.092;2022-10-17T06:27:19;13.60;99.90
46458;DHT22;32155;54.076;12.092;2022-10-17T06:29:45;13.90;99.90
46458;DHT22;32155;54.076;12.092;2022-10-17T06:32:11;14.00;99.90
46458;DHT22;32155;54.076;12.092;2022-10-17T06:34:39;14.10;99.90
46458;DHT22;32155;54.076;12.092;2022-10-17T06:37:04;14.60;99.90
46458;DHT22;32155;54.076;12.092;2022-10-17T06:39:30;14.80;99.90
46458;DHT22;32155;54.076;12.092;2022-10-17T06:41:59;15.00;99.90
46458;DHT22;32155;54.076;12.092;2022-10-17T06:44:24;14.90;99.90
46458;DHT22;32155;54.076;12.092;2022-10-17T06:46:55;15.30;99.90
46458;DHT22;32155;54.076;12.092;2022-10-17T06:49:20;15.40;99.90
46458;DHT22;32155;54.076;12.092;2022-10-17T06:51:46;15.00;99.90
46458;DHT22;32155;54.076;12.092;2022-10-17T06:54:11;14.60;99.90
46458;DHT22;32155;54.076;12.092;2022-10-17T06:56:37;14.50;99.90
46458;DHT22;32155;54.076;12.092;2022-10-17T06:59:02;14.40;99.90
46458;DHT22;32155;54.076;12.092;2022-10-17T07:01:29;15.60;99.90
46458;DHT22;32155;54.076;12.092;2022-10-17T07:03:54;16.90;99.90
46458;DHT22;32155;54.076;12.092;2022-10-17T07:06:22;18.00;99.90
46458;DHT22;32155;54.076;12.092;2022-10-17T07:08:50;18.30;99.90
46458;DHT22;32155;54.076;12.092;2022-10-17T07:11:18;18.90;99.90
46458;DHT22;32155;54.076;12.092;2022-10-17T07:13:43;19.60;99.90
46458;DHT22;32155;54.076;12.092;2022-10-17T07:16:09;20.20;99.90
46458;DHT22;32155;54.076;12.092;2022-10-17T07:18:35;20.40;99.90
46458;DHT22;32155;54.076;12.092;2022-10-17T07:21:00;20.60;99.90
46458;DHT22;32155;54.076;12.092;2022-10-17T07:23:26;21.10;99.90
46458;DHT22;32155;54.076;12.092;2022-10-17T07:25:52;21.00;99.90
46458;DHT22;32155;54.076;12.092;2022-10-17T07:28:17;21.30;99.90
46458;DHT22;32155;54.076;12.092;2022-10-17T07:30:43;22.50;99.90
46458;DHT22;32155;54.076;12.092;2022-10-17T07:33:08;22.30;99.90
46458;DHT22;32155;54.076;12.092;2022-10-17T07:35:36;22.10;99.90
46458;DHT22;32155;54.076;12.092;2022-10-17T07:38:01;22.00;99.90
46458;DHT22;32155;54.076;12.092;2022-10-17T07:40:27;22.00;99.90
46458;DHT22;32155;54.076;12.092;2022-10-17T07:42:52;22.30;99.90
46458;DHT22;32155;54.076;12.092;2022-10-17T07:45:20;22.50;99.90
46458;DHT22;32155;54.076;12.092;2022-10-17T07:47:45;23.10;99.90
46458;DHT22;32155;54.076;12.092;2022-10-17T07:50:11;23.50;99.90
46458;DHT22;32155;54.076;12.092;2022-10-17T07:52:38;23.70;99.90
46458;DHT22;32155;54.076;12.092;2022-10-17T07:55:04;23.30;99.90
46458;DHT22;32155;54.076;12.092;2022-10-17T07:57:32;24.10;99.90
46458;DHT22;32155;54.076;12.092;2022-10-17T08:00:01;24.50;99.90
46458;DHT22;32155;54.076;12.092;2022-10-17T08:02:29;24.30;99.90
46458;DHT22;32155;54.076;12.092;2022-10-17T08:04:57;24.60;99.90
46458;DHT22;32155;54.076;12.092;2022-10-17T08:07:25;24.30;99.90
46458;DHT22;32155;54.076;12.092;2022-10-17T08:09:53;24.10;99.90
46458;DHT22;32155;54.076;12.092;2022-10-17T08:12:21;23.60;99.90
46458;DHT22;32155;54.076;12.092;2022-10-17T08:14:47;23.40;99.90
46458;DHT22;32155;54.076;12.092;2022-10-17T08:17:15;23.60;99.90
46458;DHT22;32155;54.076;12.092;2022-10-17T08:19:40;24.30;99.90
46458;DHT22;32155;54.076;12.092;2022-10-17T08:22:06;24.90;99.90
46458;DHT22;32155;54.076;12.092;2022-10-17T08:24:33;25.30;99.90
46458;DHT22;32155;54.076;12.092;2022-10-17T08:26:59;24.60;99.90
46458;DHT22;32155;54.076;12.092;2022-10-17T08:29:28;24.50;99.90
46458;DHT22;32155;54.076;12.092;2022-10-17T08:31:53;25.10;99.90
46458;DHT22;32155;54.076;12.092;2022-10-17T08:34:19;24.80;99.90
46458;DHT22;32155;54.076;12.092;2022-10-17T08:36:44;24.30;99.90
46458;DHT22;32155;54.076;12.092;2022-10-17T08:39:10;25.60;99.90
46458;DHT22;32155;54.076;12.092;2022-10-17T08:46:48;26.30;99.90
46458;DHT22;32155;54.076;12.092;2022-10-17T08:49:22;25.90;99.90
46458;DHT22;32155;54.076;12.092;2022-10-17T08:51:54;25.90;99.90
46458;DHT22;32155;54.076;12.092;2022-10-17T08:54:23;26.80;99.90
46458;DHT22;32155;54.076;12.092;2022-10-17T08:56:51;25.60;99.90
46458;DHT22;32155;54.076;12.092;2022-10-17T08:59:27;25.70;99.90
46458;DHT22;32155;54.076;12.092;2022-10-17T09:12:13;27.90;99.90
46458;DHT22;32155;54.076;12.092;2022-10-17T09:19:35;28.80;99.90
46458;DHT22;32155;54.076;12.092;2022-10-17T09:22:05;29.10;99.90
46458;DHT22;32155;54.076;12.092;2022-10-17T09:24:37;28.40;99.90
46458;DHT22;32155;54.076;12.092;2022-10-17T09:27:04;27.00;99.90
46458;DHT22;32155;54.076;12.092;2022-10-17T09:29:30;24.00;99.90
46458;DHT22;32155;54.076;12.092;2022-10-17T09:34:25;22.50;99.90
46458;DHT22;32155;54.076;12.092;2022-10-17T09:36:51;22.30;99.90
46458;DHT22;32155;54.076;12.092;2022-10-17T09:39:22;21.60;99.90
46458;DHT22;32155;54.076;12.092;2022-10-17T09:47:05;21.50;99.90
46458;DHT22;32155;54.076;12.092;2022-10-17T09:49:30;21.50;99.90
46458;DHT22;32155;54.076;12.092;2022-10-17T09:51:56;21.80;99.90
46458;DHT22;32155;54.076;12.092;2022-10-17T09:54:44;22.50;99.90
46458;DHT22;32155;54.076;12.092;2022-10-17T09:57:13;23.70;99.90
46458;DHT22;32155;54.076;12.092;2022-10-17T10:00:01;24.80;99.90
46458;DHT22;32155;54.076;12.092;2022-10-17T10:02:25;25.10;99.90
46458;DHT22;32155;54.076;12.092;2022-10-17T10:05:02;25.20;99.90
46458;DHT22;32155;54.076;12.092;2022-10-17T10:07:29;25.90;99.90
46458;DHT22;32155;54.076;12.092;2022-10-17T10:09:55;27.30;99.90
46458;DHT22;32155;54.076;12.092;2022-10-17T10:12:23;27.80;99.90
46458;DHT22;32155;54.076;12.092;2022-10-17T10:14:48;27.70;99.90
46458;DHT22;32155;54.076;12.092;2022-10-17T10:19:52;29.70;99.90
46458;DHT22;32155;54.076;12.092;2022-10-17T10:22:18;27.30;99.90
46458;DHT22;32155;54.076;12.092;2022-10-17T10:24:44;27.30;99.90
46458;DHT22;32155;54.076;12.092;2022-10-17T10:27:11;27.70;99.90
46458;DHT22;32155;54.076;12.092;2022-10-17T10:29:50;27.30;99.90
46458;DHT22;32155;54.076;12.092;2022-10-17T10:37:22;26.00;99.90
46458;DHT22;32155;54.076;12.092;2022-10-17T10:40:02;26.60;99.90
46458;DHT22;32155;54.076;12.092;2022-10-17T10:42:30;26.70;99.90
46458;DHT22;32155;54.076;12.092;2022-10-17T10:44:58;27.20;99.90
46458;DHT22;32155;54.076;12.092;2022-10-17T10:47:24;27.30;99.90
46458;DHT22;32155;54.076;12.092;2022-10-17T10:49:52;26.20;99.90
46458;DHT22;32155;54.076;12.092;2022-10-17T10:52:29;26.20;99.90
46458;DHT22;32155;54.076;12.092;2022-10-17T10:55:02;26.20;99.90
46458;DHT22;32155;54.076;12.092;2022-10-17T10:57:29;26.10;99.90
46458;DHT22;32155;54.076;12.092;2022-10-17T11:02:55;27.70;99.90
46458;DHT22;32155;54.076;12.092;2022-10-17T11:13:10;25.70;99.90
46458;DHT22;32155;54.076;12.092;2022-10-17T11:21:11;24.40;99.90
46458;DHT22;32155;54.076;12.092;2022-10-17T11:23:41;25.20;99.90
46458;DHT22;32155;54.076;12.092;2022-10-17T11:26:11;25.30;99.90
46458;DHT22;32155;54.076;12.092;2022-10-17T11:28:39;24.90;99.90
46458;DHT22;32155;54.076;12.092;2022-10-17T11:31:06;24.50;99.90
46458;DHT22;32155;54.076;12.092;2022-10-17T11:33:49;24.60;99.90
46458;DHT22;32155;54.076;12.092;2022-10-17T11:36:18;24.30;99.90
46458;DHT22;32155;54.076;12.092;2022-10-17T11:41:16;24.60;99.90
46458;DHT22;32155;54.076;12.092;2022-10-17T11:43:46;24.90;99.90
46458;DHT22;32155;54.076;12.092;2022-10-17T11:46:17;25.30;99.90
46458;DHT22;32155;54.076;12.092;2022-10-17T11:51:28;25.60;99.90
46458;DHT22;32155;54.076;12.092;2022-10-17T12:03:11;28.80;99.90
46458;DHT22;32155;54.076;12.092;2022-10-17T12:12:43;25.60;99.90
46458;DHT22;32155;54.076;12.092;2022-10-17T12:17:44;24.40;99.90
46458;DHT22;32155;54.076;12.092;2022-10-17T12:22:48;23.00;99.90
46458;DHT22;32155;54.076;12.092;2022-10-17T12:25:23;22.70;99.90
46458;DHT22;32155;54.076;12.092;2022-10-17T12:27:50;22.50;99.90
46458;DHT22;32155;54.076;12.092;2022-10-17T12:30:26;22.40;99.90
46458;DHT22;32155;54.076;12.092;2022-10-17T12:32:56;22.40;99.90
46458;DHT22;32155;54.076;12.092;2022-10-17T12:35:22;22.40;99.90
46458;DHT22;32155;54.076;12.092;2022-10-17T12:51:07;25.20;99.90
46458;DHT22;32155;54.076;12.092;2022-10-17T12:56:01;24.80;99.90
46458;DHT22;32155;54.076;12.092;2022-10-17T12:58:29;24.30;99.90
46458;DHT22;32155;54.076;12.092;2022-10-17T13:00:55;24.80;99.90
46458;DHT22;32155;54.076;12.092;2022-10-17T13:03:26;24.50;99.90
46458;DHT22;32155;54.076;12.092;2022-10-17T13:05:53;23.70;99.90
46458;DHT22;32155;54.076;12.092;2022-10-17T13:08:26;23.00;99.90
46458;DHT22;32155;54.076;12.092;2022-10-17T13:10:53;22.60;99.90
46458;DHT22;32155;54.076;12.092;2022-10-17T13:15:48;22.00;99.90
46458;DHT22;32155;54.076;12.092;2022-10-17T13:18:18;22.00;99.90
46458;DHT22;32155;54.076;12.092;2022-10-17T13:20:53;21.90;99.90
46458;DHT22;32155;54.076;12.092;2022-10-17T13:23:22;21.80;99.90
46458;DHT22;32155;54.076;12.092;2022-10-17T13:26:00;21.80;99.90
46458;DHT22;32155;54.076;12.092;2022-10-17T13:28:26;21.70;99.90
46458;DHT22;32155;54.076;12.092;2022-10-17T13:30:53;21.70;99.90
46458;DHT22;32155;54.076;12.092;2022-10-17T13:33:35;21.60;99.90
46458;DHT22;32155;54.076;12.092;2022-10-17T13:36:03;21.40;99.90
46458;DHT22;32155;54.076;12.092;2022-10-17T13:38:31;21.30;99.90
46458;DHT22;32155;54.076;12.092;2022-10-17T13:40:57;21.20;99.90
46458;DHT22;32155;54.076;12.092;2022-10-17T13:43:23;21.20;99.90
46458;DHT22;32155;54.076;12.092;2022-10-17T13:45:50;21.10;99.90
46458;DHT22;32155;54.076;12.092;2022-10-17T13:48:21;21.10;99.90
46458;DHT22;32155;54.076;12.092;2022-10-17T13:50:51;21.00;99.90
46458;DHT22;32155;54.076;12.092;2022-10-17T13:53:31;21.00;99.90
46458;DHT22;32155;54.076;12.092;2022-10-17T13:58:22;20.90;99.90
46458;DHT22;32155;54.076;12.092;2022-10-17T14:00:48;20.80;99.90
46458;DHT22;32155;54.076;12.092;2022-10-17T14:03:20;20.80;99.90
46458;DHT22;32155;54.076;12.092;2022-10-17T14:06:05;20.90;99.90
46458;DHT22;32155;54.076;12.092;2022-10-17T14:08:34;20.90;99.90
46458;DHT22;32155;54.076;12.092;2022-10-17T14:11:00;20.70;99.90
46458;DHT22;32155;54.076;12.092;2022-10-17T14:13:26;20.60;99.90
46458;DHT22;32155;54.076;12.092;2022-10-17T14:15:53;20.50;99.90
46458;DHT22;32155;54.076;12.092;2022-10-17T14:18:20;20.40;99.90
46458;DHT22;32155;54.076;12.092;2022-10-17T14:20:47;20.40;99.90
46458;DHT22;32155;54.076;12.092;2022-10-17T14:28:31;20.50;99.90
46458;DHT22;32155;54.076;12.092;2022-10-17T14:31:10;20.50;99.90
46458;DHT22;32155;54.076;12.092;2022-10-17T14:33:41;20.40;99.90
46458;DHT22;32155;54.076;12.092;2022-10-17T14:36:07;20.40;99.90
46458;DHT22;32155;54.076;12.092;2022-10-17T14:38:33;20.30;99.90
46458;DHT22;32155;54.076;12.092;2022-10-17T14:41:00;20.30;99.90
46458;DHT22;32155;54.076;12.092;2022-10-17T14:43:27;20.30;99.90
46458;DHT22;32155;54.076;12.092;2022-10-17T14:45:55;20.30;99.90
46458;DHT22;32155;54.076;12.092;2022-10-17T14:48:21;20.30;99.90
46458;DHT22;32155;54.076;12.092;2022-10-17T14:53:37;20.20;99.90
46458;DHT22;32155;54.076;12.092;2022-10-17T14:56:20;20.10;99.90
46458;DHT22;32155;54.076;12.092;2022-10-17T14:58:45;20.10;99.90
46458;DHT22;32155;54.076;12.092;2022-10-17T15:01:11;20.10;99.90
46458;DHT22;32155;54.076;12.092;2022-10-17T15:03:39;20.10;99.90
46458;DHT22;32155;54.076;12.092;2022-10-17T15:06:18;20.10;99.90
46458;DHT22;32155;54.076;12.092;2022-10-17T15:08:44;20.10;99.90
46458;DHT22;32155;54.076;12.092;2022-10-17T15:11:12;20.10;99.90
46458;DHT22;32155;54.076;12.092;2022-10-17T15:13:37;20.10;99.90
46458;DHT22;32155;54.076;12.092;2022-10-17T15:16:17;20.00;99.90
46458;DHT22;32155;54.076;12.092;2022-10-17T15:18:42;20.00;99.90
46458;DHT22;32155;54.076;12.092;2022-10-17T15:21:12;20.00;99.90
46458;DHT22;32155;54.076;12.092;2022-10-17T15:23:37;19.90;99.90
46458;DHT22;32155;54.076;12.092;2022-10-17T15:26:13;19.90;99.90
46458;DHT22;32155;54.076;12.092;2022-10-17T15:28:39;19.90;99.90
46458;DHT22;32155;54.076;12.092;2022-10-17T15:31:05;19.90;99.90
46458;DHT22;32155;54.076;12.092;2022-10-17T15:33:30;19.90;99.90
46458;DHT22;32155;54.076;12.092;2022-10-17T15:35:56;19.80;99.90
46458;DHT22;32155;54.076;12.092;2022-10-17T15:38:21;19.80;99.90
46458;DHT22;32155;54.076;12.092;2022-10-17T15:40:49;19.70;99.90
46458;DHT22;32155;54.076;12.092;2022-10-17T15:43:16;19.60;99.90
46458;DHT22;32155;54.076;12.092;2022-10-17T15:45:44;19.60;99.90
46458;DHT22;32155;54.076;12.092;2022-10-17T15:48:16;19.60;99.90
46458;DHT22;32155;54.076;12.092;2022-10-17T15:50:45;19.50;99.90
46458;DHT22;32155;54.076;12.092;2022-10-17T15:53:11;19.40;99.90
46458;DHT22;32155;54.076;12.092;2022-10-17T15:55:37;19.30;99.90
46458;DHT22;32155;54.076;12.092;2022-10-17T15:58:02;19.30;99.90
46458;DHT22;32155;54.076;12.092;2022-10-17T16:00:30;19.30;99.90
46458;DHT22;32155;54.076;12.092;2022-10-17T16:02:55;19.20;99.90
46458;DHT22;32155;54.076;12.092;2022-10-17T16:05:22;19.30;99.90
46458;DHT22;32155;54.076;12.092;2022-10-17T16:07:49;19.30;99.90
46458;DHT22;32155;54.076;12.092;2022-10-17T16:10:15;19.20;99.90
46458;DHT22;32155;54.076;12.092;2022-10-17T16:12:41;19.20;99.90
46458;DHT22;32155;54.076;12.092;2022-10-17T16:15:11;19.10;99.90
46458;DHT22;32155;54.076;12.092;2022-10-17T16:17:37;19.00;99.90
46458;DHT22;32155;54.076;12.092;2022-10-17T16:20:03;19.00;99.90
46458;DHT22;32155;54.076;12.092;2022-10-17T16:22:29;18.90;99.90
46458;DHT22;32155;54.076;12.092;2022-10-17T16:24:56;18.80;99.90
46458;DHT22;32155;54.076;12.092;2022-10-17T16:27:24;18.90;99.90
46458;DHT22;32155;54.076;12.092;2022-10-17T16:29:49;18.80;99.90
46458;DHT22;32155;54.076;12.092;2022-10-17T16:32:18;18.80;99.90
46458;DHT22;32155;54.076;12.092;2022-10-17T16:34:43;18.70;99.90
46458;DHT22;32155;54.076;12.092;2022-10-17T16:37:09;18.60;99.90
46458;DHT22;32155;54.076;12.092;2022-10-17T16:39:34;18.60;99.90
46458;DHT22;32155;54.076;12.092;2022-10-17T16:42:00;18.50;99.90
46458;DHT22;32155;54.076;12.092;2022-10-17T16:44:25;18.50;99.90
46458;DHT22;32155;54.076;12.092;2022-10-17T16:46:51;18.50;99.90
46458;DHT22;32155;54.076;12.092;2022-10-17T16:49:16;18.50;99.90
46458;DHT22;32155;54.076;12.092;2022-10-17T16:51:45;18.50;99.90
46458;DHT22;32155;54.076;12.092;2022-10-17T16:54:11;18.40;99.90
46458;DHT22;32155;54.076;12.092;2022-10-17T16:56:36;18.40;99.90
46458;DHT22;32155;54.076;12.092;2022-10-17T16:59:06;18.40;99.90
46458;DHT22;32155;54.076;12.092;2022-10-17T17:01:31;18.40;99.90
46458;DHT22;32155;54.076;12.092;2022-10-17T17:03:57;18.40;99.90
46458;DHT22;32155;54.076;12.092;2022-10-17T17:06:24;18.40;99.90
46458;DHT22;32155;54.076;12.092;2022-10-17T17:08:50;18.30;99.90
46458;DHT22;32155;54.076;12.092;2022-10-17T17:11:17;18.30;99.90
46458;DHT22;32155;54.076;12.092;2022-10-17T17:13:42;18.30;99.90
46458;DHT22;32155;54.076;12.092;2022-10-17T17:16:09;18.30;99.90
46458;DHT22;32155;54.076;12.092;2022-10-17T17:18:35;18.20;99.90
46458;DHT22;32155;54.076;12.092;2022-10-17T17:21:01;18.20;99.90
46458;DHT22;32155;54.076;12.092;2022-10-17T17:23:27;18.20;99.90
46458;DHT22;32155;54.076;12.092;2022-10-17T17:25:57;18.20;99.90
46458;DHT22;32155;54.076;12.092;2022-10-17T17:28:22;18.20;99.90
46458;DHT22;32155;54.076;12.092;2022-10-17T17:30:48;18.20;99.90
46458;DHT22;32155;54.076;12.092;2022-10-17T17:33:13;18.10;99.90
46458;DHT22;32155;54.076;12.092;2022-10-17T17:35:39;18.20;99.90
46458;DHT22;32155;54.076;12.092;2022-10-17T17:38:04;18.10;99.90
46458;DHT22;32155;54.076;12.092;2022-10-17T17:40:31;18.10;99.90